createdAt,value
2019-05-09T00:05:05.584Z,7.78
2019-05-09T00:08:15.881Z,7.92
2019-05-09T00:10:58.741Z,7.98
2019-05-09T00:13:48.447Z,7.87
2019-05-09T00:16:33.359Z,7.89
2019-05-09T00:19:23.750Z,7.81
2019-05-09T00:22:07.012Z,7.85
2019-05-09T00:24:56.773Z,7.87
2019-05-09T00:27:39.660Z,7.92
2019-05-09T00:30:48.197Z,7.93
2019-05-09T00:33:34.076Z,7.92
2019-05-09T00:36:23.207Z,7.91
2019-05-09T00:39:07.073Z,7.91
2019-05-09T00:41:56.921Z,7.65
2019-05-09T00:44:43.132Z,7.88
2019-05-09T00:47:33.062Z,7.79
2019-05-09T00:50:17.226Z,7.76
2019-05-09T00:53:07.101Z,7.69
2019-05-09T00:55:49.295Z,7.65
2019-05-09T00:58:38.981Z,7.58
2019-05-09T01:01:21.126Z,7.67
2019-05-09T01:04:12.989Z,7.65
2019-05-09T01:06:55.476Z,7.69
2019-05-09T01:09:45.226Z,7.64
2019-05-09T01:12:27.411Z,7.61
2019-05-09T01:15:17.505Z,7.60
2019-05-09T01:17:59.994Z,7.54
2019-05-09T01:20:49.722Z,7.47
2019-05-09T01:23:34.351Z,7.39
2019-05-09T01:26:24.318Z,7.34
2019-05-09T01:29:08.144Z,7.40
2019-05-09T01:35:15.446Z,7.40
2019-05-09T01:38:05.228Z,7.28
2019-05-09T01:40:47.400Z,7.27
2019-05-09T01:43:37.194Z,7.22
2019-05-09T01:46:19.966Z,7.19
2019-05-09T01:49:09.706Z,7.13
2019-05-09T01:51:53.793Z,7.03
2019-05-09T01:57:47.966Z,6.99
2019-05-09T02:00:37.774Z,6.97
2019-05-09T02:03:19.762Z,7.00
2019-05-09T02:06:09.470Z,7.02
2019-05-09T02:08:54.252Z,6.97
2019-05-09T02:15:06.034Z,6.76
2019-05-09T02:18:14.734Z,6.81
2019-05-09T02:20:57.215Z,6.72
2019-05-09T02:26:47.901Z,6.97
2019-05-09T02:29:37.624Z,6.94
2019-05-09T02:32:19.802Z,6.77
2019-05-09T02:38:08.443Z,7.00
2019-05-09T02:40:59.479Z,6.98
2019-05-09T02:43:41.773Z,6.94
2019-05-09T02:46:50.363Z,6.77
2019-05-09T02:49:40.114Z,6.89
2019-05-09T02:52:29.911Z,6.90
2019-05-09T02:55:19.615Z,6.96
2019-05-09T02:58:03.226Z,6.81
2019-05-09T03:01:11.785Z,6.83
2019-05-09T03:04:20.315Z,6.80
2019-05-09T03:07:02.629Z,6.64
2019-05-09T03:09:52.449Z,6.81
2019-05-09T03:12:54.686Z,6.70
2019-05-09T03:18:52.036Z,6.65
2019-05-09T03:24:41.984Z,6.82
2019-05-09T03:27:28.969Z,6.83
2019-05-09T03:30:20.603Z,6.81
2019-05-09T03:33:00.682Z,6.80
2019-05-09T03:35:50.427Z,6.69
2019-05-09T03:38:40.186Z,6.83
2019-05-09T03:41:29.912Z,6.75
2019-05-09T03:44:12.542Z,6.87
2019-05-09T03:47:21.160Z,6.90
2019-05-09T03:50:25.292Z,6.96
2019-05-09T03:53:08.475Z,6.99
2019-05-09T03:55:52.497Z,7.02
2019-05-09T03:58:42.297Z,6.88
2019-05-09T04:01:32.028Z,7.06
2019-05-09T04:04:14.947Z,6.90
2019-05-09T04:07:04.683Z,6.98
2019-05-09T04:13:03.041Z,6.85
2019-05-09T04:15:47.194Z,6.71
2019-05-09T04:18:37.712Z,6.86
2019-05-09T04:21:21.214Z,6.88
2019-05-09T04:24:11.375Z,6.92
2019-05-09T04:30:20.276Z,6.90
2019-05-09T04:33:10.044Z,6.92
2019-05-09T04:35:53.944Z,6.93
2019-05-09T04:38:43.660Z,6.90
2019-05-09T04:41:28.607Z,6.93
2019-05-09T04:45:02.787Z,6.94
2019-05-09T04:47:43.443Z,7.04
2019-05-09T04:50:31.552Z,7.49
2019-05-09T04:53:13.808Z,8.24
2019-05-09T04:59:10.376Z,9.92
2019-05-09T05:02:18.927Z,12.29
2019-05-09T05:05:01.811Z,14.26
2019-05-09T05:07:51.524Z,16.39
2019-05-09T05:10:34.352Z,18.01
2019-05-09T05:13:26.781Z,19.05
2019-05-09T05:16:09.191Z,19.52
2019-05-09T05:18:58.895Z,17.86
2019-05-09T05:21:41.013Z,16.15
2019-05-09T05:24:49.559Z,16.77
2019-05-09T05:27:32.235Z,17.89
2019-05-09T05:33:45.043Z,19.72
2019-05-09T05:36:28.188Z,20.36
2019-05-09T05:38:59.404Z,19.81
2019-05-09T05:41:49.886Z,19.93
2019-05-09T05:44:40.191Z,20.25
2019-05-09T05:47:49.272Z,20.16
2019-05-09T05:50:32.584Z,21.36
2019-05-09T05:56:28.021Z,21.31
2019-05-09T05:59:11.771Z,20.26
2019-05-09T06:02:01.545Z,20.36
2019-05-09T06:04:51.377Z,19.49
2019-05-09T06:07:41.191Z,18.28
2019-05-09T06:10:30.979Z,18.02
2019-05-09T06:13:20.740Z,16.97
2019-05-09T06:16:10.479Z,16.51
2019-05-09T06:19:00.439Z,14.89
2019-05-09T06:24:53.834Z,13.12
2019-05-09T06:27:37.564Z,12.67
2019-05-09T06:33:46.241Z,11.76
2019-05-09T06:36:33.617Z,11.76
2019-05-09T06:39:23.399Z,11.91
2019-05-09T06:42:13.181Z,12.13
2019-05-09T06:48:00.021Z,13.03
2019-05-09T06:50:48.417Z,13.19
2019-05-09T06:53:39.356Z,12.98
2019-05-09T06:56:21.435Z,12.56
2019-05-09T06:59:31.719Z,12.72
2019-05-09T07:08:38.057Z,12.63
2019-05-09T07:11:20.941Z,12.27
2019-05-09T07:14:32.395Z,11.55
2019-05-09T07:17:12.027Z,11.09
2019-05-09T07:19:54.893Z,10.92
2019-05-09T07:22:44.582Z,10.76
2019-05-09T07:25:48.550Z,10.84
2019-05-09T07:28:38.291Z,10.89
2019-05-09T07:31:39.274Z,11.12
2019-05-09T07:34:47.787Z,11.26
2019-05-09T07:37:30.097Z,11.39
2019-05-09T07:40:19.787Z,11.59
2019-05-09T07:43:09.498Z,11.60
2019-05-09T07:46:12.541Z,11.42
2019-05-09T07:49:04.761Z,11.29
2019-05-09T07:51:54.567Z,11.16
2019-05-09T07:57:54.900Z,11.08
2019-05-09T08:00:32.578Z,10.93
2019-05-09T08:03:22.267Z,10.99
2019-05-09T08:06:11.986Z,10.99
2019-05-09T08:12:02.759Z,10.78
2019-05-09T08:15:07.616Z,10.47
2019-05-09T08:17:38.101Z,10.18
2019-05-09T08:20:28.043Z,10.05
2019-05-09T08:23:12.227Z,10.12
2019-05-09T08:26:04.469Z,9.94
2019-05-09T08:28:47.997Z,9.98
2019-05-09T08:31:40.082Z,10.16
2019-05-09T08:34:22.027Z,10.25
2019-05-09T08:37:12.690Z,10.31
2019-05-09T08:39:57.781Z,10.23
2019-05-09T08:42:48.097Z,10.41
2019-05-09T08:45:31.623Z,10.62
2019-05-09T08:48:21.516Z,10.67
2019-05-09T08:54:49.753Z,10.99
2019-05-09T08:57:39.441Z,11.13
2019-05-09T09:00:23.093Z,11.26
2019-05-09T09:06:15.241Z,11.40
2019-05-09T09:09:25.528Z,11.75
2019-05-09T09:12:25.269Z,11.88
2019-05-09T09:14:59.266Z,12.06
2019-05-09T09:17:30.040Z,12.07
2019-05-09T09:20:19.757Z,12.03
2019-05-09T09:23:02.067Z,11.92
2019-05-09T09:25:51.791Z,11.94
2019-05-09T09:28:34.361Z,12.12
2019-05-09T09:31:24.095Z,12.47
2019-05-09T09:34:07.908Z,13.17
2019-05-09T09:37:04.312Z,13.39
2019-05-09T09:39:44.709Z,13.76
2019-05-09T09:42:34.707Z,13.95
2019-05-09T09:45:19.088Z,14.09
2019-05-09T09:48:09.375Z,13.91
2019-05-09T09:50:53.342Z,13.85
2019-05-09T09:53:43.113Z,13.72
2019-05-09T09:56:27.985Z,13.68
2019-05-09T10:02:12.440Z,13.50
2019-05-09T10:05:02.237Z,13.45
2019-05-09T10:07:51.933Z,13.44
2019-05-09T10:10:35.407Z,13.66
2019-05-09T10:13:25.148Z,13.81
2019-05-09T10:16:33.784Z,13.66
2019-05-09T10:19:42.325Z,13.87
2019-05-09T10:22:26.106Z,14.08
2019-05-09T10:25:18.273Z,14.32
2019-05-09T10:28:00.114Z,14.44
2019-05-09T10:30:49.874Z,14.69
2019-05-09T10:33:39.759Z,14.71
2019-05-09T10:36:29.455Z,14.88
2019-05-09T10:45:45.214Z,14.24
2019-05-09T10:48:34.974Z,14.34
2019-05-09T10:51:18.537Z,14.37
2019-05-09T10:54:08.475Z,14.94
2019-05-09T10:56:50.808Z,15.46
2019-05-09T10:59:40.523Z,15.62
2019-05-09T11:02:23.368Z,15.74
2019-05-09T11:08:10.756Z,16.09
2019-05-09T11:10:53.164Z,15.94
2019-05-09T11:13:42.982Z,16.01
2019-05-09T11:16:44.902Z,16.08
2019-05-09T11:19:18.346Z,15.97
2019-05-09T11:22:08.301Z,15.77
2019-05-09T11:24:58.201Z,15.87
2019-05-09T11:27:42.251Z,15.78
2019-05-09T11:30:32.058Z,15.57
2019-05-09T11:33:21.840Z,15.27
2019-05-09T11:36:12.025Z,15.03
2019-05-09T11:38:55.395Z,14.82
2019-05-09T11:41:48.806Z,14.32
2019-05-09T11:44:31.360Z,13.88
2019-05-09T11:47:31.696Z,13.83
2019-05-09T11:50:05.382Z,14.24
2019-05-09T11:52:55.138Z,14.83
2019-05-09T11:55:44.868Z,15.06
2019-05-09T12:01:39.705Z,15.28
2019-05-09T12:04:23.580Z,15.47
2019-05-09T12:10:09.855Z,15.80
2019-05-09T12:12:59.573Z,16.07
2019-05-09T12:15:42.462Z,16.19
2019-05-09T12:18:32.184Z,15.69
2019-05-09T12:21:15.115Z,15.59
2019-05-09T12:24:04.846Z,15.81
2019-05-09T12:30:15.110Z,16.08
2019-05-09T12:33:04.789Z,16.24
2019-05-09T12:35:47.791Z,16.48
2019-05-09T12:38:38.883Z,16.27
2019-05-09T12:41:22.637Z,16.13
2019-05-09T12:44:12.388Z,15.93
2019-05-09T12:46:58.135Z,15.91
2019-05-09T12:49:48.808Z,16.01
2019-05-09T12:52:31.866Z,15.98
2019-05-09T12:55:21.573Z,15.92
2019-05-09T12:58:04.321Z,16.02
2019-05-09T13:00:54.134Z,16.08
2019-05-09T13:03:38.215Z,15.99
2019-05-09T13:06:29.595Z,15.80
2019-05-09T13:09:19.562Z,16.08
2019-05-09T13:12:09.282Z,16.00
2019-05-09T13:14:52.119Z,15.85
2019-05-09T13:17:43.952Z,16.00
2019-05-09T13:20:33.788Z,16.06
2019-05-09T13:26:28.949Z,15.75
2019-05-09T13:29:11.797Z,15.38
2019-05-09T13:32:01.547Z,15.49
2019-05-09T13:34:51.341Z,15.91
2019-05-09T13:37:41.150Z,15.77
2019-05-09T13:40:30.925Z,15.54
2019-05-09T13:43:20.699Z,15.70
2019-05-09T13:46:10.429Z,15.50
2019-05-09T13:49:11.100Z,15.41
2019-05-09T13:51:50.990Z,15.49
2019-05-09T13:54:38.064Z,15.91
2019-05-09T13:57:19.986Z,15.96
2019-05-09T14:00:10.015Z,16.11
2019-05-09T14:02:59.771Z,15.91
2019-05-09T14:06:01.945Z,15.86
2019-05-09T14:08:43.929Z,15.81
2019-05-09T14:11:33.625Z,15.74
2019-05-09T14:14:17.920Z,16.02
2019-05-09T14:17:09.828Z,16.11
2019-05-09T14:19:52.302Z,16.05
2019-05-09T14:22:42.063Z,15.72
2019-05-09T14:25:24.450Z,15.33
2019-05-09T14:28:14.178Z,15.26
2019-05-09T14:30:59.326Z,15.41
2019-05-09T14:33:48.506Z,15.24
2019-05-09T14:36:30.425Z,15.12
2019-05-09T14:39:20.152Z,14.77
2019-05-09T14:42:02.463Z,14.31
2019-05-09T14:44:52.191Z,13.87
2019-05-09T14:47:38.572Z,13.45
2019-05-09T14:50:28.337Z,13.59
2019-05-09T14:53:10.270Z,13.38
2019-05-09T14:56:00.003Z,13.49
2019-05-09T14:58:42.963Z,13.43
2019-05-09T15:01:32.677Z,13.60
2019-05-09T15:04:15.183Z,13.98
2019-05-09T15:07:04.886Z,14.05
2019-05-09T15:09:47.108Z,13.81
2019-05-09T15:12:39.002Z,14.23
2019-05-09T15:15:21.211Z,14.35
2019-05-09T15:18:10.997Z,14.21
2019-05-09T15:20:53.414Z,14.29
2019-05-09T15:23:43.124Z,14.25
2019-05-09T15:26:27.558Z,14.49
2019-05-09T15:29:17.471Z,14.61
2019-05-09T15:32:04.738Z,14.80
2019-05-09T15:34:51.280Z,14.46
2019-05-09T15:37:33.823Z,14.19
2019-05-09T15:40:23.562Z,14.29
2019-05-09T15:43:08.324Z,14.26
2019-05-09T15:46:18.467Z,14.28
2019-05-09T15:49:07.830Z,14.39
2019-05-09T15:51:50.215Z,14.34
2019-05-09T15:54:39.941Z,14.53
2019-05-09T15:57:22.181Z,14.47
2019-05-09T16:03:14.791Z,14.26
2019-05-09T16:08:51.379Z,14.18
2019-05-09T16:11:37.770Z,14.20
2019-05-09T16:14:20.432Z,14.16
2019-05-09T16:17:10.216Z,14.18
2019-05-09T16:20:00.014Z,14.46
2019-05-09T16:22:49.811Z,14.37
2019-05-09T16:28:43.329Z,14.35
2019-05-09T16:31:27.873Z,14.46
2019-05-09T16:34:18.030Z,14.36
2019-05-09T16:37:09.263Z,14.40
2019-05-09T16:39:52.151Z,14.24
2019-05-09T16:42:41.934Z,14.06
2019-05-09T16:45:31.797Z,13.96
2019-05-09T16:48:21.866Z,13.82
2019-05-09T16:51:11.839Z,13.74
2019-05-09T16:54:01.639Z,13.55
2019-05-09T16:56:51.416Z,13.63
2019-05-09T16:59:41.317Z,13.63
2019-05-09T17:02:31.081Z,13.57
2019-05-09T17:05:20.865Z,13.46
2019-05-09T17:08:10.613Z,13.44
2019-05-09T17:10:53.143Z,13.37
2019-05-09T17:13:42.956Z,13.40
2019-05-09T17:16:33.029Z,13.33
2019-05-09T17:19:22.835Z,13.27
2019-05-09T17:25:10.716Z,13.12
2019-05-09T17:28:00.446Z,12.99
2019-05-09T17:30:42.610Z,12.88
2019-05-09T17:33:32.347Z,12.56
2019-05-09T17:36:14.804Z,12.66
2019-05-09T17:41:59.930Z,12.62
2019-05-09T17:44:49.699Z,12.67
2019-05-09T17:47:39.520Z,12.72
2019-05-09T17:50:29.277Z,12.72
2019-05-09T17:53:33.865Z,12.70
2019-05-09T17:56:15.975Z,12.36
2019-05-09T17:59:05.739Z,12.56
2019-05-09T18:01:48.609Z,12.57
2019-05-09T18:04:38.334Z,12.55
2019-05-09T18:07:09.044Z,12.53
2019-05-09T18:09:58.741Z,12.49
2019-05-09T18:12:40.982Z,12.25
2019-05-09T18:15:30.686Z,12.40
2019-05-09T18:18:15.191Z,12.38
2019-05-09T18:21:05.183Z,12.18
2019-05-09T18:23:48.045Z,12.34
2019-05-09T18:26:18.764Z,12.33
2019-05-09T18:29:08.480Z,12.25
2019-05-09T18:38:07.984Z,11.97
2019-05-09T18:40:51.698Z,12.07
2019-05-09T18:43:41.515Z,12.10
2019-05-09T18:46:31.652Z,12.12
2019-05-09T18:49:21.452Z,12.00
2019-05-09T18:52:11.271Z,12.17
2019-05-09T18:55:01.096Z,12.18
2019-05-09T18:57:50.888Z,12.19
2019-05-09T19:00:40.762Z,12.18
2019-05-09T19:03:30.690Z,12.09
2019-05-09T19:06:20.487Z,12.05
2019-05-09T19:09:10.228Z,11.98
2019-05-09T19:11:54.274Z,11.94
2019-05-09T19:18:00.633Z,11.87
2019-05-09T19:23:59.731Z,11.71
2019-05-09T19:26:49.475Z,11.75
2019-05-09T19:29:33.464Z,11.69
2019-05-09T19:32:23.220Z,11.58
2019-05-09T19:35:05.213Z,11.37
2019-05-09T19:37:55.030Z,11.40
2019-05-09T19:40:37.762Z,11.14
2019-05-09T19:43:27.610Z,11.03
2019-05-09T19:46:10.393Z,11.06
2019-05-09T19:49:00.126Z,11.01
2019-05-09T19:51:42.707Z,10.96
2019-05-09T19:54:32.487Z,10.96
2019-05-09T19:57:14.871Z,10.71
2019-05-09T20:00:04.807Z,10.87
2019-05-09T20:02:47.189Z,10.83
2019-05-09T20:05:37.021Z,10.84
2019-05-09T20:08:26.838Z,10.82
2019-05-09T20:14:21.203Z,10.80
2019-05-09T20:17:10.992Z,10.78
2019-05-09T20:19:53.975Z,10.76
2019-05-09T20:22:52.548Z,10.76
2019-05-09T20:25:31.659Z,10.74
2019-05-09T20:28:21.581Z,10.73
2019-05-09T20:31:04.297Z,10.73
2019-05-09T20:33:54.039Z,10.67
2019-05-09T20:36:43.745Z,10.67
2019-05-09T20:39:26.513Z,10.71
2019-05-09T20:42:16.474Z,10.70
2019-05-09T20:48:00.936Z,10.69
2019-05-09T20:50:32.125Z,10.48
2019-05-09T20:53:22.309Z,10.68
2019-05-09T20:56:12.617Z,10.75
2019-05-09T20:58:56.201Z,10.71
2019-05-09T21:01:46.747Z,10.69
2019-05-09T21:04:36.904Z,10.65
2019-05-09T21:10:18.257Z,10.60
2019-05-09T21:13:09.316Z,10.56
2019-05-09T21:15:51.997Z,10.56
2019-05-09T21:18:42.781Z,10.49
2019-05-09T21:21:29.170Z,10.53
2019-05-09T21:24:18.446Z,10.50
2019-05-09T21:27:01.359Z,10.50
2019-05-09T21:29:51.610Z,10.49
2019-05-09T21:32:35.217Z,10.37
2019-05-09T21:35:25.015Z,10.34
2019-05-09T21:38:07.938Z,10.46
2019-05-09T21:40:57.668Z,10.43
2019-05-09T21:43:40.015Z,10.39
2019-05-09T21:46:29.745Z,10.31
2019-05-09T21:49:12.179Z,10.27
2019-05-09T21:52:01.911Z,10.27
2019-05-09T21:54:44.630Z,10.25
2019-05-09T21:57:34.350Z,10.22
2019-05-09T22:00:20.744Z,10.20
2019-05-09T22:03:10.684Z,10.29
2019-05-09T22:05:53.152Z,10.30
2019-05-09T22:08:42.907Z,10.28
2019-05-09T22:11:27.342Z,10.31
2019-05-09T22:14:17.076Z,10.34
2019-05-09T22:23:31.286Z,10.38
2019-05-09T22:26:17.614Z,10.42
2019-05-09T22:31:46.886Z,10.47
2019-05-09T22:34:36.936Z,10.51
2019-05-09T22:37:19.400Z,10.53
2019-05-09T22:43:16.609Z,10.53
2019-05-09T22:46:06.807Z,10.52
2019-05-09T22:48:48.949Z,10.42
2019-05-09T22:51:38.859Z,10.37
2019-05-09T22:54:21.872Z,10.19
2019-05-09T22:57:05.510Z,10.32
2019-05-09T22:59:55.592Z,10.34
2019-05-09T23:02:46.186Z,10.34
2019-05-09T23:05:35.932Z,10.37
2019-05-09T23:08:22.911Z,10.38
2019-05-09T23:11:12.666Z,10.32
2019-05-09T23:13:55.200Z,10.33
2019-05-09T23:16:44.950Z,10.33
2019-05-09T23:19:27.004Z,10.32
2019-05-09T23:22:16.872Z,10.34
2019-05-09T23:25:01.470Z,10.33
2019-05-09T23:27:44.181Z,10.26
2019-05-09T23:30:34.119Z,10.31
2019-05-09T23:36:20.676Z,10.41
2019-05-09T23:39:29.224Z,10.49
2019-05-09T23:42:12.176Z,10.38
2019-05-09T23:45:01.939Z,10.47
2019-05-09T23:47:44.632Z,10.50
2019-05-09T23:50:34.330Z,10.34
2019-05-09T23:53:19.443Z,10.53
2019-05-09T23:56:27.949Z,10.56
2019-05-09T23:59:28.797Z,10.55
